VJC1802 VOBL-VVTS
Flight info
| Callsign | VJC1802 |
|---|---|
| Flight time | N/A |
| Altitude | 31000 |
| Route | TULNA8C TULNA W116 MMV Q10 OLSOR L301 RINDA/N0469F330 L301 BKK N506 ELMOP R468 SAPEN/K0857F330 SAPEN5B |
| Aircraft | A321/M-SDE3FGHIRWY/LB1 |
Departure
| Time | 2026-05-08 10:06 |
|---|---|
| Airport | Kempegowda International Airport Bengaluru (VOBL) |
Arrival
| Time | N/A |
|---|---|
| Airport | Tan Son Nhat International Airport (VVTS) |
| Time | Latitude | Longitude | Altitude | Speed | Heading |
|---|---|---|---|---|---|
| 2026-05-08 10:06 | 13.18738 | 77.95414 | 8014 ft | 277 kts | 89° |
| 2026-05-08 10:06 | 13.18721 | 77.97400 | 8514 ft | 279 kts | 89° |
| 2026-05-08 10:06 | 13.18701 | 77.99401 | 9001 ft | 282 kts | 89° |
| 2026-05-08 10:07 | 13.18680 | 78.01418 | 9500 ft | 284 kts | 89° |
| 2026-05-08 10:07 | 13.18658 | 78.03452 | 9971 ft | 286 kts | 89° |
| 2026-05-08 10:07 | 13.18636 | 78.05536 | 10158 ft | 300 kts | 89° |
| 2026-05-08 10:07 | 13.18615 | 78.07695 | 10269 ft | 314 kts | 89° |
| 2026-05-08 10:08 | 13.18404 | 78.09980 | 10388 ft | 330 kts | 100° |
| 2026-05-08 10:08 | 13.17904 | 78.12330 | 10505 ft | 344 kts | 101° |
| 2026-05-08 10:08 | 13.17379 | 78.14771 | 10700 ft | 354 kts | 101° |
| 2026-05-08 10:08 | 13.16841 | 78.17257 | 11062 ft | 359 kts | 101° |
| 2026-05-08 10:09 | 13.16295 | 78.19765 | 11485 ft | 361 kts | 101° |
| 2026-05-08 10:10 | 13.14084 | 78.30047 | 13192 ft | 372 kts | 101° |
| 2026-05-08 10:10 | 13.13525 | 78.32649 | 13621 ft | 375 kts | 101° |
| 2026-05-08 10:10 | 13.12968 | 78.35234 | 13960 ft | 378 kts | 102° |
| 2026-05-08 10:10 | 13.12398 | 78.37880 | 14313 ft | 381 kts | 102° |
| 2026-05-08 10:11 | 13.11824 | 78.40539 | 14648 ft | 384 kts | 102° |
| 2026-05-08 10:11 | 13.11244 | 78.43225 | 14982 ft | 387 kts | 102° |
| 2026-05-08 10:11 | 13.10660 | 78.45926 | 15312 ft | 390 kts | 102° |
| 2026-05-08 10:11 | 13.10072 | 78.48648 | 15635 ft | 392 kts | 102° |
| 2026-05-08 10:12 | 13.09476 | 78.51393 | 15950 ft | 395 kts | 102° |
| 2026-05-08 10:12 | 13.08873 | 78.54155 | 16259 ft | 398 kts | 103° |
| 2026-05-08 10:12 | 13.08268 | 78.56941 | 16563 ft | 401 kts | 103° |
| 2026-05-08 10:12 | 13.07670 | 78.59707 | 16862 ft | 404 kts | 103° |
| 2026-05-08 10:13 | 13.07059 | 78.62538 | 17159 ft | 406 kts | 103° |
| 2026-05-08 10:13 | 13.06446 | 78.65373 | 17459 ft | 409 kts | 103° |
| 2026-05-08 10:13 | 13.05828 | 78.68234 | 17734 ft | 412 kts | 103° |
| 2026-05-08 10:13 | 13.05203 | 78.71112 | 18008 ft | 414 kts | 103° |
| 2026-05-08 10:14 | 13.04573 | 78.74004 | 18255 ft | 417 kts | 103° |
| 2026-05-08 10:14 | 13.03939 | 78.76914 | 18495 ft | 419 kts | 103° |
| 2026-05-08 10:14 | 13.03304 | 78.79833 | 18737 ft | 421 kts | 103° |
| 2026-05-08 10:14 | 13.02667 | 78.82768 | 18994 ft | 422 kts | 103° |
| 2026-05-08 10:15 | 13.02026 | 78.85715 | 19251 ft | 424 kts | 103° |
| 2026-05-08 10:15 | 13.01386 | 78.88668 | 19501 ft | 425 kts | 103° |
| 2026-05-08 10:15 | 13.00742 | 78.91635 | 19746 ft | 427 kts | 103° |
| 2026-05-08 10:15 | 13.00102 | 78.94572 | 19980 ft | 429 kts | 103° |
| 2026-05-08 10:16 | 12.99452 | 78.97561 | 20219 ft | 430 kts | 103° |
| 2026-05-08 10:16 | 12.98799 | 79.00562 | 20460 ft | 432 kts | 103° |
| 2026-05-08 10:16 | 12.98143 | 79.03572 | 20692 ft | 433 kts | 103° |
| 2026-05-08 10:16 | 12.97485 | 79.06590 | 20926 ft | 435 kts | 103° |
| 2026-05-08 10:17 | 12.96956 | 79.09658 | 21135 ft | 437 kts | 96° |
| 2026-05-08 10:17 | 12.96890 | 79.12782 | 21363 ft | 440 kts | 89° |
| 2026-05-08 10:17 | 12.96957 | 79.15918 | 21589 ft | 441 kts | 89° |
| 2026-05-08 10:17 | 12.97021 | 79.19065 | 21821 ft | 442 kts | 90° |
| 2026-05-08 10:18 | 12.97085 | 79.22227 | 22051 ft | 444 kts | 89° |
| 2026-05-08 10:18 | 12.97150 | 79.25351 | 22273 ft | 445 kts | 90° |
| 2026-05-08 10:18 | 12.97213 | 79.28530 | 22502 ft | 447 kts | 90° |
| 2026-05-08 10:18 | 12.97275 | 79.31720 | 22718 ft | 448 kts | 90° |
| 2026-05-08 10:19 | 12.97335 | 79.34922 | 22930 ft | 450 kts | 90° |
| 2026-05-08 10:19 | 12.97395 | 79.38136 | 23150 ft | 451 kts | 90° |
| 2026-05-08 10:19 | 12.97457 | 79.41351 | 23353 ft | 452 kts | 90° |
| 2026-05-08 10:20 | 12.97578 | 79.47821 | 23698 ft | 455 kts | 90° |
| 2026-05-08 10:20 | 12.97637 | 79.51072 | 23871 ft | 457 kts | 89° |
| 2026-05-08 10:20 | 12.97698 | 79.54291 | 24045 ft | 458 kts | 89° |
| 2026-05-08 10:20 | 12.97763 | 79.57554 | 24216 ft | 459 kts | 89° |
| 2026-05-08 10:21 | 12.97827 | 79.60832 | 24391 ft | 460 kts | 90° |
| 2026-05-08 10:21 | 12.97868 | 79.63006 | 24506 ft | 461 kts | 90° |
| 2026-05-08 10:22 | 12.98099 | 79.76557 | 25178 ft | 465 kts | 90° |
| 2026-05-08 10:22 | 12.98159 | 79.79873 | 25343 ft | 466 kts | 89° |
| 2026-05-08 10:22 | 12.98219 | 79.83205 | 25507 ft | 467 kts | 89° |
| 2026-05-08 10:23 | 12.98279 | 79.86543 | 25716 ft | 469 kts | 90° |
| 2026-05-08 10:23 | 12.98338 | 79.89895 | 25921 ft | 471 kts | 90° |
| 2026-05-08 10:23 | 12.98395 | 79.93251 | 26118 ft | 472 kts | 89° |
| 2026-05-08 10:23 | 12.98451 | 79.96617 | 26294 ft | 473 kts | 90° |
| 2026-05-08 10:24 | 12.98506 | 79.99993 | 26489 ft | 474 kts | 89° |
| 2026-05-08 10:24 | 12.98561 | 80.03375 | 26654 ft | 475 kts | 90° |
| 2026-05-08 10:24 | 12.98617 | 80.06757 | 26798 ft | 476 kts | 89° |
| 2026-05-08 10:24 | 12.98676 | 80.10152 | 26945 ft | 477 kts | 89° |
| 2026-05-08 10:25 | 12.99010 | 80.13534 | 27089 ft | 478 kts | 79° |
| 2026-05-08 10:25 | 12.99868 | 80.16820 | 27228 ft | 479 kts | 70° |
| 2026-05-08 10:25 | 13.01202 | 80.19902 | 27343 ft | 480 kts | 61° |
| 2026-05-08 10:25 | 13.02844 | 80.22880 | 27471 ft | 481 kts | 60° |
| 2026-05-08 10:26 | 13.04501 | 80.25863 | 27601 ft | 482 kts | 60° |
| 2026-05-08 10:26 | 13.06160 | 80.28850 | 27723 ft | 483 kts | 60° |
| 2026-05-08 10:26 | 13.07823 | 80.31845 | 27868 ft | 484 kts | 60° |
| 2026-05-08 10:26 | 13.09489 | 80.34848 | 27984 ft | 485 kts | 60° |
| 2026-05-08 10:27 | 13.11153 | 80.37857 | 28122 ft | 486 kts | 60° |
| 2026-05-08 10:27 | 13.12821 | 80.40879 | 28305 ft | 485 kts | 60° |
| 2026-05-08 10:27 | 13.14481 | 80.43890 | 28503 ft | 485 kts | 60° |
| 2026-05-08 10:27 | 13.16140 | 80.46897 | 28699 ft | 484 kts | 60° |
| 2026-05-08 10:28 | 13.17797 | 80.49901 | 28878 ft | 484 kts | 60° |
| 2026-05-08 10:28 | 13.19456 | 80.52906 | 29064 ft | 484 kts | 60° |
| 2026-05-08 10:28 | 13.21113 | 80.55909 | 29248 ft | 483 kts | 60° |
| 2026-05-08 10:28 | 13.22765 | 80.58908 | 29412 ft | 483 kts | 60° |
| 2026-05-08 10:29 | 13.24417 | 80.61909 | 29601 ft | 482 kts | 60° |
| 2026-05-08 10:29 | 13.26065 | 80.64906 | 29772 ft | 482 kts | 60° |
| 2026-05-08 10:29 | 13.27713 | 80.67898 | 29942 ft | 482 kts | 60° |
| 2026-05-08 10:29 | 13.29363 | 80.70891 | 30090 ft | 481 kts | 60° |
| 2026-05-08 10:30 | 13.30989 | 80.73842 | 30230 ft | 481 kts | 60° |
| 2026-05-08 10:30 | 13.32635 | 80.76831 | 30376 ft | 481 kts | 60° |
| 2026-05-08 10:30 | 13.34278 | 80.79821 | 30532 ft | 480 kts | 60° |
| 2026-05-08 10:30 | 13.35919 | 80.82808 | 30681 ft | 480 kts | 60° |
| 2026-05-08 10:31 | 13.37558 | 80.85791 | 30838 ft | 480 kts | 60° |
| 2026-05-08 10:31 | 13.39199 | 80.88774 | 30994 ft | 479 kts | 60° |
| 2026-05-08 10:31 | 13.40841 | 80.91752 | 31146 ft | 479 kts | 60° |
| 2026-05-08 10:31 | 13.42481 | 80.94723 | 31318 ft | 478 kts | 60° |
| 2026-05-08 10:32 | 13.44115 | 80.97699 | 31473 ft | 478 kts | 60° |
| 2026-05-08 10:32 | 13.45744 | 81.00675 | 31639 ft | 477 kts | 61° |
| 2026-05-08 10:32 | 13.47371 | 81.03646 | 31796 ft | 477 kts | 61° |
| 2026-05-08 10:32 | 13.48995 | 81.06613 | 31962 ft | 476 kts | 61° |
| 2026-05-08 10:33 | 13.50619 | 81.09575 | 32120 ft | 476 kts | 61° |
| 2026-05-08 10:33 | 13.52220 | 81.12496 | 32280 ft | 475 kts | 61° |
| 2026-05-08 10:33 | 13.53674 | 81.15537 | 32438 ft | 474 kts | 72° |
| 2026-05-08 10:33 | 13.54473 | 81.18808 | 32590 ft | 472 kts | 79° |
| 2026-05-08 10:34 | 13.55118 | 81.22114 | 32748 ft | 471 kts | 79° |
| 2026-05-08 10:34 | 13.56386 | 81.28715 | 32812 ft | 471 kts | 79° |
| 2026-05-08 10:35 | 13.57644 | 81.35313 | 32807 ft | 470 kts | 79° |
| 2026-05-08 10:35 | 13.58908 | 81.41900 | 32813 ft | 470 kts | 79° |
| 2026-05-08 10:36 | 13.60179 | 81.48487 | 32809 ft | 470 kts | 79° |
| 2026-05-08 10:36 | 13.61528 | 81.55013 | 32811 ft | 470 kts | 78° |
| 2026-05-08 10:37 | 13.62953 | 81.61569 | 32816 ft | 470 kts | 78° |
| 2026-05-08 10:37 | 13.64365 | 81.68134 | 32819 ft | 470 kts | 78° |
| 2026-05-08 10:38 | 13.65750 | 81.74702 | 32821 ft | 470 kts | 78° |
| 2026-05-08 10:38 | 13.67128 | 81.81283 | 32820 ft | 471 kts | 78° |
| 2026-05-08 10:39 | 13.68513 | 81.87856 | 32820 ft | 470 kts | 78° |
| 2026-05-08 10:39 | 13.69886 | 81.94388 | 32816 ft | 470 kts | 78° |
| 2026-05-08 10:40 | 13.71265 | 82.00964 | 32816 ft | 471 kts | 78° |
| 2026-05-08 10:40 | 13.72641 | 82.07542 | 32815 ft | 471 kts | 79° |
| 2026-05-08 10:41 | 13.74011 | 82.14134 | 32821 ft | 471 kts | 79° |
| 2026-05-08 10:41 | 13.75396 | 82.20718 | 32826 ft | 471 kts | 78° |
| 2026-05-08 10:42 | 13.76769 | 82.27268 | 32819 ft | 471 kts | 79° |
| 2026-05-08 10:42 | 13.78138 | 82.33859 | 32820 ft | 471 kts | 79° |
| 2026-05-08 10:43 | 13.79507 | 82.40454 | 32823 ft | 471 kts | 79° |
| 2026-05-08 10:43 | 13.80873 | 82.47041 | 32815 ft | 471 kts | 79° |
| 2026-05-08 10:44 | 13.82250 | 82.53632 | 32825 ft | 471 kts | 79° |
| 2026-05-08 10:44 | 13.83613 | 82.60212 | 32824 ft | 470 kts | 79° |
| 2026-05-08 10:45 | 13.84962 | 82.66754 | 32824 ft | 470 kts | 79° |
| 2026-05-08 10:45 | 13.86321 | 82.73332 | 32828 ft | 470 kts | 79° |
| 2026-05-08 10:46 | 13.87676 | 82.79910 | 32824 ft | 470 kts | 79° |
| 2026-05-08 10:46 | 13.88125 | 82.82091 | 32827 ft | 470 kts | 79° |